AGROMETEOROLOŠKI PORTAL

vinorodna pokrajina

Temelj dobrega kmetovanja

Pregled podatkov za lokacijo Črnova (Gradišnik), meteorološka postaja 516314

Pregled senzorjev na lokaciji

ID Ime Zadnja
vrednost
Datum in čas
meritve
(lokalni čas)
Tip
senzorja
6958 Omočenost lista (1,5 m) (U) 9 U 25.9.2022 23:30 A730WET
6959 Padavine (mm) 0,2 mm 25.9.2022 23:30 Generic 0.2 mm
6957 Relativna zračna vlaga (2 m) (%RH) 100 %RH 25.9.2022 23:30 50YA
6956 Temperatura (2 m) (°C) 11,7 °C 25.9.2022 23:30 50YA

Pregled podatkov zadnjih 24 ur

Zap.
št.
Datum in čas
(lokalni čas)
Črnova (Gradišnik)
Omočenost
lista
(1,5
m)
Padavine Relativna
zračna
vlaga
(2
m)
Temperatura
(2
m)
1 25.9.2022 23:30 9 0,2 100 11,7
2 25.9.2022 23:00 8 1 100 11,7
3 25.9.2022 22:30 8 3,4 100 11,7
4 25.9.2022 22:00 8 1 100 11,8
5 25.9.2022 21:30 7 2,8 100 11,8
6 25.9.2022 21:00 9 0,6 100 11,8
7 25.9.2022 20:30 9 0,4 100 11,9
8 25.9.2022 20:00 9 0,4 100 11,8
9 25.9.2022 19:30 9 1 100 11,8
10 25.9.2022 19:00 9 0,2 100 11,9
11 25.9.2022 18:30 9 0,4 99,9 12,1
12 25.9.2022 18:00 10 0 99,4 12,2
13 25.9.2022 17:30 9 0,2 99,7 12,3
14 25.9.2022 17:00 9 0,8 99,9 12,2
15 25.9.2022 16:30 8 1,6 99,9 12,3
16 25.9.2022 16:00 8 1,6 99,2 12,2
17 25.9.2022 15:30 8 0,8 99,3 12,5
18 25.9.2022 15:00 8 1,6 99,1 12,3
19 25.9.2022 14:30 9 0,2 99,2 12,4
20 25.9.2022 14:00 9 0,8 99,8 12,3
21 25.9.2022 13:30 10 0,6 100 12
22 25.9.2022 13:00 9 0,2 99,9 12
23 25.9.2022 12:30 8 0,8 99,9 11,8
24 25.9.2022 12:00 8 1,6 100 11,7
25 25.9.2022 11:30 9 0,8 100 11,6
26 25.9.2022 11:00 10 0,2 100 11,7
27 25.9.2022 10:30 9 0,6 100 11,5
28 25.9.2022 10:00 9 0,8 100 11,2
29 25.9.2022 09:30 8 1,8 100 11,3
30 25.9.2022 09:00 9 1,4 100 11,4
31 25.9.2022 08:30 9 1,4 100 11,4
32 25.9.2022 08:00 10 1 100 11,3
33 25.9.2022 07:30 10 0,2 100 11,3
34 25.9.2022 07:00 10 1 100 11,4
35 25.9.2022 06:30 10 0,4 99,8 11,5
36 25.9.2022 06:00 10 0,2 99,6 11,5
37 25.9.2022 05:30 10 0,2 99,2 11,5
38 25.9.2022 05:00 10 0,6 98,7 11,7
39 25.9.2022 04:30 10 0,2 97,3 11,9
40 25.9.2022 04:00 2 0 93,8 12,4
41 25.9.2022 03:30 0 0 89,3 12,8
42 25.9.2022 03:00 0 0 90,2 12,8
43 25.9.2022 02:30 0 0 90,7 13
44 25.9.2022 02:00 0 0 89,3 13,2
45 25.9.2022 01:30 0 0 88,8 13,1
46 25.9.2022 01:00 0 0 87,9 13,1